Spar Capella — LAKA7 — position and weather

sailwx.info

Track history (hours):
 
Tides and Currents Weather Stations Pressure Air Temp Water Temp Dewpoint Dewpoint Depression Visibility Wind Speed Wind Dir Waves Ship Positions

Spar Capella

Last reported at 2018-Jan-21 22:32 UTC. Time now 2018-Feb-17 20:04 UTC.
Position N 32°59' W 009°31'.
Warning: this ship's position is 26 days out of date.

Length 190 m; draft 7.3 m.

Type: Cargo ship. MMSI: 259545000.

Date/timePositionNaut miles runAvg speedWind from/ knotsBaromVisibWave heightAir tempDewpointWater temp
2018-Jan-21 22:32N 32°59' W 009°31'0 2.0
2018-Jan-21 22:30N 32°59' W 009°31'1 1.9
2018-Jan-21 21:59N 32°60' W 009°30'1 1.9
2018-Jan-21 21:30N 33°00' W 009°29'4 1.6
2018-Jan-21 19:01N 33°02' W 009°25'0 1.4
2018-Jan-21 18:47N 33°02' W 009°25'0 1.4
2018-Jan-21 18:28N 33°03' W 009°24'1 1.5
2018-Jan-21 17:34N 33°03' W 009°23'0 2.2
2018-Jan-21 17:26N 33°03' W 009°23'5 9.3
2018-Jan-21 16:57N 33°00' W 009°27'613.0
2018-Jan-21 16:30N 32°57' W 009°33'510.4
2018-Jan-21 16:00N 32°54' W 009°38'5 9.1
2018-Jan-21 15:29N 32°52' W 009°43'5 9.1
2018-Jan-21 14:59N 32°49' W 009°47'6 1.1
2018-Jan-21 09:31N 32°52' W 009°42'0 1.2
2018-Jan-21 09:28N 32°52' W 009°41'1 1.2
2018-Jan-21 08:58N 32°52' W 009°41'2 1.3
2018-Jan-21 07:46N 32°53' W 009°39'1 1.3
2018-Jan-21 07:04N 32°53' W 009°38'0 1.2
2018-Jan-21 06:49N 32°53' W 009°38'1 1.0
2018-Jan-21 06:19N 32°54' W 009°37'1 1.1
2018-Jan-21 05:52N 32°54' W 009°37'1 1.1
2018-Jan-21 05:22N 32°54' W 009°36'1 1.1
2018-Jan-21 04:52N 32°54' W 009°35'1 1.1
2018-Jan-21 04:22N 32°54' W 009°35'1 1.1
2018-Jan-21 03:52N 32°55' W 009°34'  
Track history (hours):
 
Tides and Currents Weather Stations Pressure Air Temp Water Temp Dewpoint Dewpoint Depression Visibility Wind Speed Wind Dir Waves Ship Positions

Spar Capella

Last reported at 2018-Jan-21 22:32 UTC. Time now 2018-Feb-17 20:04 UTC.
Position N 32°59' W 009°31'.
Warning: this ship's position is 26 days out of date.

Length 190 m; draft 7.3 m.

Type: Cargo ship. MMSI: 259545000.

Date/timePositionNaut miles runAvg speedWind from/ knotsBaromVisibWave heightAir tempDewpointWater temp
2018-Jan-21 22:32N 32°59' W 009°31'0 2.0
2018-Jan-21 22:30N 32°59' W 009°31'1 1.9
2018-Jan-21 21:59N 32°60' W 009°30'1 1.9
2018-Jan-21 21:30N 33°00' W 009°29'4 1.6
2018-Jan-21 19:01N 33°02' W 009°25'0 1.4
2018-Jan-21 18:47N 33°02' W 009°25'0 1.4
2018-Jan-21 18:28N 33°03' W 009°24'1 1.5
2018-Jan-21 17:34N 33°03' W 009°23'0 2.2
2018-Jan-21 17:26N 33°03' W 009°23'5 9.3
2018-Jan-21 16:57N 33°00' W 009°27'613.0
2018-Jan-21 16:30N 32°57' W 009°33'510.4
2018-Jan-21 16:00N 32°54' W 009°38'5 9.1
2018-Jan-21 15:29N 32°52' W 009°43'5 9.1
2018-Jan-21 14:59N 32°49' W 009°47'6 1.1
2018-Jan-21 09:31N 32°52' W 009°42'0 1.2
2018-Jan-21 09:28N 32°52' W 009°41'1 1.2
2018-Jan-21 08:58N 32°52' W 009°41'2 1.3
2018-Jan-21 07:46N 32°53' W 009°39'1 1.3
2018-Jan-21 07:04N 32°53' W 009°38'0 1.2
2018-Jan-21 06:49N 32°53' W 009°38'1 1.0
2018-Jan-21 06:19N 32°54' W 009°37'1 1.1
2018-Jan-21 05:52N 32°54' W 009°37'1 1.1
2018-Jan-21 05:22N 32°54' W 009°36'1 1.1
2018-Jan-21 04:52N 32°54' W 009°35'1 1.1
2018-Jan-21 04:22N 32°54' W 009°35'1 1.1
2018-Jan-21 03:52N 32°55' W 009°34'  

Dump ship's entire track history